Terminal Aerodrome Forecast
Issued by NWS

Home | Current Version | Previous Version | Graphics & Text | Print | Product List | Glossary On
Versions: 1 2 3 4 5 6 7 8 9 10 11 12 13 14 15 16 17 18 19 20 21 22 23 24 25 26 27 28 29 30 31 32 33 34 35 36 37 38
000
FTUS43 KLOT 030904 AAA
TAFORD
TAF AMD
KORD 030904Z 0309/0412 22004KT P6SM FEW050 SCT100 BKN250
     FM031400 24009KT P6SM SCT050 SCT250
     FM032200 13006KT P6SM SCT050 BKN250 PROB30 0323/0402 6SM -TSRA
      BKN045CB
     FM040200 VRB03KT P6SM SCT040 BKN250=

USA.gov is the U.S. government's official web portal to all federal, state and local government web resources and services.